Time;durP1;ratioP1;P1;durP2;ratioP2;P2;SDS_P1;SDS_P2;PMS_P1;PMS_P2;Temp;Humidity;BMP_temperature;BMP_pressure;BME280_temperature;BME280_humidity;BME280_pressure;Samples;Min_cycle;Max_cycle;Signal;HPM_P1;HPM_P2
2022/05/21 01:17:17;;;;;;;2.10;1.90;;;;;;;21.02;58.16;97723.84;6098040;23;20202;-91
2022/05/21 01:20:03;;;;;;;2.50;1.60;;;;;;;20.64;58.20;97662.00;6094900;23;20156;-91
2022/05/21 01:22:31;;;;;;;2.00;1.80;;;;;;;20.25;57.95;97605.28;6120119;23;20171;-92
2022/05/21 01:24:58;;;;;;;2.60;2.10;;;;;;;19.68;57.99;97524.97;6095715;23;20171;-90
2022/05/21 01:27:26;;;;;;;1.90;1.70;;;;;;;19.59;57.94;97486.41;6095224;23;20207;-91
2022/05/21 01:29:53;;;;;;;2.10;1.90;;;;;;;18.80;58.02;97350.94;6072104;23;20172;-91
2022/05/21 01:32:20;;;;;;;1.67;1.57;;;;;;;19.67;58.29;97517.28;6048495;23;20211;-91
2022/05/21 01:34:47;;;;;;;2.20;1.97;;;;;;;19.64;58.22;97502.75;6095585;23;20336;-91
2022/05/21 01:37:14;;;;;;;3.03;1.80;;;;;;;20.03;58.18;97572.16;6095487;23;20235;-91
2022/05/21 01:39:41;;;;;;;2.23;1.80;;;;;;;20.14;58.07;97585.31;6048103;23;20216;-91
2022/05/21 01:42:08;;;;;;;2.67;1.80;;;;;;;19.81;58.19;97547.53;6095801;23;20172;-91
2022/05/21 01:44:38;;;;;;;1.80;1.70;;;;;;;20.23;58.29;97616.25;6071360;23;20580;-91
2022/05/21 01:47:09;;;;;;;2.20;1.70;;;;;;;19.84;57.94;97562.94;6096235;23;20163;-91
2022/05/21 01:49:35;;;;;;;2.73;1.80;;;;;;;19.74;57.95;97537.94;6072341;23;20164;-91
2022/05/21 01:52:03;;;;;;;1.67;1.57;;;;;;;20.23;58.16;97631.56;6120269;23;20191;-91
2022/05/21 01:54:30;;;;;;;1.97;1.77;;;;;;;18.94;57.95;97416.81;6071393;23;20200;-91
2022/05/21 01:56:57;;;;;;;1.80;1.70;;;;;;;19.51;58.14;97500.53;6119852;23;20376;-91
2022/05/21 01:59:24;;;;;;;1.87;1.67;;;;;;;20.02;58.08;97592.50;6119552;23;20429;-91
2022/05/21 02:01:50;;;;;;;2.00;1.80;;;;;;;19.82;58.11;97554.41;6119739;23;20167;-91
2022/05/21 02:04:17;;;;;;;2.33;2.10;;;;;;;20.49;58.04;97676.78;6095350;23;20166;-91
2022/05/21 02:06:44;;;;;;;1.70;1.60;;;;;;;19.65;58.11;97544.38;6095272;23;20164;-91
2022/05/21 02:09:11;;;;;;;2.00;1.80;;;;;;;19.86;58.22;97566.44;6095632;23;21240;-91
2022/05/21 02:11:38;;;;;;;2.40;2.20;;;;;;;20.06;58.29;97610.53;6071471;23;20186;-91
2022/05/21 02:14:05;;;;;;;1.97;1.80;;;;;;;20.29;58.02;97644.56;6071277;23;20164;-91
2022/05/21 02:16:34;;;;;;;2.13;1.80;;;;;;;19.14;58.03;97443.03;6071472;23;20179;-91
2022/05/21 02:19:01;;;;;;;1.97;1.77;;;;;;;20.28;57.82;97646.22;6119979;23;20168;-91
2022/05/21 02:21:29;;;;;;;1.70;1.60;;;;;;;20.25;58.17;97642.72;6095304;23;20176;-90
2022/05/21 02:23:55;;;;;;;2.83;2.13;;;;;;;19.78;58.17;97555.06;6070771;23;20176;-91
2022/05/21 02:26:22;;;;;;;2.70;2.10;;;;;;;20.65;58.16;97713.13;6095220;23;20159;-91
2022/05/21 02:28:49;;;;;;;1.63;1.53;;;;;;;19.61;57.93;97542.53;6095228;23;20164;-91
2022/05/21 02:31:15;;;;;;;1.50;1.40;;;;;;;20.18;58.23;97626.31;6071673;23;20152;-91
2022/05/21 02:33:43;;;;;;;6.03;1.90;;;;;;;19.82;58.40;97579.03;6120148;23;20159;-91
2022/05/21 02:36:10;;;;;;;2.23;1.93;;;;;;;19.91;58.17;97585.34;6094922;23;20167;-91
2022/05/21 02:41:22;;;;;;;1.90;1.80;;;;;;;19.84;58.15;97567.22;6119767;23;20154;-91
2022/05/21 02:43:49;;;;;;;1.77;1.67;;;;;;;19.82;58.03;97577.34;6120334;23;20168;-91
2022/05/21 02:46:16;;;;;;;1.90;1.80;;;;;;;19.93;58.18;97593.03;6094903;23;20195;-91
2022/05/21 02:48:42;;;;;;;1.87;1.77;;;;;;;19.89;58.01;97591.19;6095710;23;20160;-91
2022/05/21 02:51:09;;;;;;;1.80;1.70;;;;;;;19.96;58.23;97605.91;6120034;23;20148;-91
2022/05/21 02:53:36;;;;;;;2.10;1.90;;;;;;;20.16;58.01;97642.38;6095555;23;20175;-90
2022/05/21 02:56:04;;;;;;;1.90;1.70;;;;;;;19.73;58.29;97571.03;6119818;23;20203;-91
2022/05/21 02:58:31;;;;;;;2.07;1.63;;;;;;;20.37;58.12;97691.66;6095025;23;20163;-91
2022/05/21 03:00:58;;;;;;;1.90;1.50;;;;;;;19.83;58.32;97590.94;6071422;23;20208;-91
2022/05/21 03:03:25;;;;;;;2.23;1.97;;;;;;;20.64;57.99;97728.41;6071503;23;20172;-91
2022/05/21 03:05:51;;;;;;;2.27;2.07;;;;;;;19.94;58.13;97616.06;6119865;23;20166;-91
2022/05/21 03:11:06;;;;;;;1.60;1.50;;;;;;;20.17;58.24;97656.88;6080406;23;20164;-91
2022/05/21 03:13:34;;;;;;;2.30;1.70;;;;;;;19.54;58.24;97571.16;6121303;23;20167;-91
2022/05/21 03:16:01;;;;;;;2.07;1.70;;;;;;;20.73;58.29;97761.94;6073004;23;20218;-91
2022/05/21 03:18:27;;;;;;;1.60;1.50;;;;;;;20.02;58.23;97642.69;6096789;23;20195;-91
2022/05/21 03:20:54;;;;;;;1.87;1.73;;;;;;;20.02;58.28;97645.25;6072964;23;20172;-91
2022/05/21 03:23:21;;;;;;;1.60;1.50;;;;;;;19.96;58.20;97636.53;6073073;23;20176;-91
2022/05/21 03:25:47;;;;;;;2.10;1.90;;;;;;;20.25;58.08;97693.75;6072464;23;20183;-91
2022/05/21 03:28:18;;;;;;;1.93;1.53;;;;;;;19.59;58.08;97567.97;6073161;23;20237;-91
2022/05/21 03:30:45;;;;;;;2.00;1.70;;;;;;;20.19;58.32;97690.97;6121324;23;20175;-91
2022/05/21 03:33:11;;;;;;;3.03;1.70;;;;;;;19.82;58.37;97613.06;6121134;23;20319;-91
2022/05/21 03:35:41;;;;;;;2.03;1.80;;;;;;;19.88;58.21;97627.69;6072815;23;20219;-91
2022/05/21 03:38:11;;;;;;;2.47;1.60;;;;;;;19.98;58.18;97646.78;6074381;23;20224;-91
2022/05/21 03:40:38;;;;;;;1.77;1.50;;;;;;;20.63;58.39;97757.31;6096620;23;20163;-90
2022/05/21 03:43:04;;;;;;;1.57;1.47;;;;;;;19.95;58.29;97650.06;6121024;23;20176;-91
2022/05/21 03:45:31;;;;;;;1.87;1.70;;;;;;;20.61;58.43;97782.78;6120973;23;20156;-91
2022/05/21 03:47:58;;;;;;;2.00;1.80;;;;;;;19.44;58.02;97572.50;6072791;23;20148;-91
2022/05/21 03:50:26;;;;;;;1.60;1.50;;;;;;;19.86;58.31;97665.03;6121263;23;20164;-91
2022/05/21 03:52:52;;;;;;;1.90;1.70;;;;;;;20.31;58.62;97737.38;6073003;23;20633;-91
2022/05/21 03:55:19;;;;;;;2.43;2.00;;;;;;;20.06;58.35;97692.16;6120664;23;20174;-92
2022/05/21 03:57:46;;;;;;;2.13;1.80;;;;;;;19.62;58.12;97620.75;6096400;23;20184;-91
2022/05/21 04:00:13;;;;;;;2.77;1.80;;;;;;;19.83;58.27;97663.25;6120676;23;20164;-91
2022/05/21 04:02:40;;;;;;;2.40;1.90;;;;;;;20.01;58.03;97710.66;6121020;23;20180;-91
2022/05/21 04:05:07;;;;;;;1.80;1.70;;;;;;;19.85;58.23;97676.03;6072382;23;20167;-91
2022/05/21 04:07:35;;;;;;;1.70;1.60;;;;;;;19.79;58.39;97688.56;6096239;23;20200;-91
2022/05/21 04:10:02;;;;;;;1.70;1.60;;;;;;;20.10;58.17;97733.97;6096469;23;20160;-91
2022/05/21 04:12:28;;;;;;;1.70;1.53;;;;;;;19.44;58.18;97640.44;6071525;23;20413;-91
2022/05/21 04:14:56;;;;;;;1.93;1.80;;;;;;;20.61;58.07;97825.31;6120368;23;20159;-91
2022/05/21 04:17:22;;;;;;;1.70;1.50;;;;;;;20.26;58.12;97780.59;6070543;23;20184;-91
2022/05/21 04:19:49;;;;;;;1.60;1.50;;;;;;;20.33;58.17;97791.88;6119116;23;20184;-91
2022/05/21 04:22:15;;;;;;;1.93;1.73;;;;;;;19.68;58.39;97688.16;6119629;23;20215;-90
2022/05/21 04:24:42;;;;;;;1.83;1.40;;;;;;;20.09;58.68;97760.28;6120665;23;20156;-92
2022/05/21 04:27:09;;;;;;;1.80;1.70;;;;;;;19.93;58.09;97741.84;6072488;23;20187;-91
2022/05/21 04:29:36;;;;;;;2.07;1.87;;;;;;;20.21;58.55;97788.84;6120451;23;20152;-90
2022/05/21 04:32:03;;;;;;;1.90;1.70;;;;;;;20.12;58.34;97773.16;6095217;23;20172;-91
2022/05/21 04:34:30;;;;;;;1.80;1.70;;;;;;;19.76;58.42;97719.03;6095481;23;20159;-91
2022/05/21 04:36:56;;;;;;;1.47;1.37;;;;;;;20.28;58.33;97817.22;6120517;23;20203;-90
2022/05/21 04:39:28;;;;;;;1.83;1.70;;;;;;;21.02;58.27;97943.59;6073586;23;20199;-91
2022/05/21 04:42:00;;;;;;;1.57;1.47;;;;;;;19.95;58.29;97765.72;6095656;23;20211;-91
2022/05/21 04:44:31;;;;;;;2.07;1.70;;;;;;;19.61;58.56;97723.53;6120412;23;20168;-91
2022/05/21 04:46:58;;;;;;;2.13;1.60;;;;;;;20.61;58.38;97891.72;6073721;23;20219;-91
2022/05/21 04:49:25;;;;;;;1.50;1.40;;;;;;;18.59;58.32;97554.56;6072204;23;20176;-90
2022/05/21 04:51:51;;;;;;;1.57;1.47;;;;;;;20.33;58.58;97861.69;6120415;23;20172;-91
2022/05/21 04:54:18;;;;;;;2.47;1.80;;;;;;;20.15;58.22;97814.13;6095702;23;20188;-91
2022/05/21 04:56:45;;;;;;;2.07;1.73;;;;;;;20.61;57.99;97894.28;6071443;23;20187;-91
2022/05/21 04:59:12;;;;;;;1.90;1.70;;;;;;;19.90;58.57;97790.19;6120740;23;20164;-92
2022/05/21 05:01:39;;;;;;;1.97;1.50;;;;;;;20.61;58.64;97891.72;6120373;23;20176;-93
2022/05/21 05:04:06;;;;;;;2.10;1.90;;;;;;;20.62;58.75;97904.53;6094127;23;20168;-90
2022/05/21 05:06:33;;;;;;;3.20;1.90;;;;;;;19.60;58.73;97726.91;6095724;23;20178;-90
2022/05/21 05:09:00;;;;;;;3.10;1.80;;;;;;;19.56;58.70;97723.34;6095411;23;20160;-91
2022/05/21 05:11:27;;;;;;;1.97;1.77;;;;;;;19.79;58.50;97765.94;6095531;23;20215;-93
2022/05/21 05:13:54;;;;;;;3.30;2.00;;;;;;;20.27;58.46;97852.91;6072375;23;20156;-93
2022/05/21 05:16:21;;;;;;;3.50;1.87;;;;;;;19.89;58.52;97773.16;6048770;23;20168;-92
2022/05/21 05:18:48;;;;;;;2.00;1.67;;;;;;;20.65;58.50;97897.00;6095509;23;20175;-92
2022/05/21 05:21:15;;;;;;;1.90;1.67;;;;;;;19.75;58.40;97758.97;6094788;23;20203;-91
2022/05/21 05:23:41;;;;;;;3.60;1.70;;;;;;;20.62;58.35;97924.97;6119945;23;20184;-92
2022/05/21 05:26:08;;;;;;;3.23;1.93;;;;;;;20.09;58.63;97818.97;6071373;23;20156;-91
2022/05/21 05:28:34;;;;;;;1.97;1.63;;;;;;;20.59;58.70;97908.66;6071940;23;20168;-91
2022/05/21 05:31:01;;;;;;;2.57;2.10;;;;;;;19.92;58.55;97790.25;6071085;23;20148;-92
2022/05/21 05:33:30;;;;;;;4.03;1.60;;;;;;;19.62;58.77;97748.22;6095066;23;20176;-92
2022/05/21 05:35:59;;;;;;;2.07;1.83;;;;;;;19.64;58.71;97736.41;6094404;23;20203;-93
2022/05/21 05:38:26;;;;;;;4.10;1.73;;;;;;;19.93;58.68;97803.06;6071242;23;20192;-93
2022/05/21 05:40:55;;;;;;;2.10;1.90;;;;;;;19.35;58.83;97707.19;6071696;23;20200;-93
2022/05/21 05:43:22;;;;;;;2.77;1.83;;;;;;;19.74;58.50;97774.22;6072973;23;20203;-93
2022/05/21 05:45:49;;;;;;;3.83;1.70;;;;;;;19.43;57.39;97727.91;6095616;23;20164;-93
2022/05/21 05:48:16;;;;;;;3.90;1.57;;;;;;;18.89;57.72;97614.38;6071507;23;20167;-93
2022/05/21 05:50:42;;;;;;;1.60;1.50;;;;;;;19.56;57.93;97759.03;6120025;23;20164;-92
2022/05/21 05:53:09;;;;;;;3.37;1.77;;;;;;;19.96;58.41;97803.19;6095527;23;20171;-92
2022/05/21 05:55:36;;;;;;;3.73;1.80;;;;;;;19.83;58.64;97784.78;6047848;23;20187;-93
2022/05/21 05:59:48;;;;;;;1.90;1.57;;;;;;;19.24;58.55;97705.84;6047554;23;20218;-92
2022/05/21 06:00:50;;;;;;;2.60;1.70;;;;;;;20.26;58.52;97875.03;6099051;23;20163;-92
2022/05/21 06:03:17;;;;;;;2.60;1.90;;;;;;;20.16;59.14;97880.53;6071550;23;20199;-93
2022/05/21 06:05:44;;;;;;;1.93;1.67;;;;;;;20.02;59.01;97831.47;6047967;23;20159;-92
2022/05/21 06:08:10;;;;;;;3.33;1.90;;;;;;;20.08;58.64;97861.50;6071086;23;20171;-92
2022/05/21 06:10:40;;;;;;;1.97;1.77;;;;;;;20.23;58.75;97874.00;6047476;23;20167;-92
2022/05/21 06:13:07;;;;;;;1.67;1.53;;;;;;;19.54;58.63;97767.44;6072606;23;20187;-92
2022/05/21 06:15:34;;;;;;;2.50;1.73;;;;;;;18.86;58.70;97649.91;6048313;23;20156;-93
2022/05/21 06:18:07;;;;;;;1.70;1.60;;;;;;;19.21;58.84;97702.28;6050212;23;20187;-93
2022/05/21 06:20:35;;;;;;;3.87;1.80;;;;;;;18.96;58.67;97676.63;6050564;23;20186;-93
2022/05/21 06:23:02;;;;;;;2.60;1.87;;;;;;;20.61;58.60;97947.91;6072269;23;20188;-92
2022/05/21 06:25:33;;;;;;;1.67;1.50;;;;;;;18.44;58.56;97587.03;6072336;23;20183;-93
2022/05/21 06:28:00;;;;;;;3.47;1.83;;;;;;;19.49;58.51;97769.81;6049217;23;20176;-92
2022/05/21 06:30:27;;;;;;;4.57;1.93;;;;;;;20.61;58.50;97969.22;6071658;23;20156;-91
2022/05/21 06:32:54;;;;;;;1.97;1.67;;;;;;;20.28;58.71;97906.56;6070968;23;20179;-91
2022/05/21 06:35:21;;;;;;;3.40;1.90;;;;;;;19.86;58.51;97848.66;6070653;23;20174;-91
2022/05/21 06:37:48;;;;;;;1.80;1.70;;;;;;;19.94;58.75;97863.50;6094741;23;20195;-92
2022/05/21 06:40:15;;;;;;;2.00;1.80;;;;;;;20.28;58.93;97921.88;6071493;23;20156;-92
2022/05/21 09:18:31;;;;;;;2.87;2.57;;;;;;;20.96;57.72;97935.69;6100379;23;20152;-93
2022/05/21 09:21:05;;;;;;;3.50;2.30;;;;;;;21.02;57.40;97937.63;6073355;23;20160;-93
2022/05/21 09:23:52;;;;;;;3.50;2.40;;;;;;;21.36;57.49;97987.50;6045719;23;20208;-92
2022/05/21 09:26:24;;;;;;;2.43;2.23;;;;;;;20.31;57.20;97806.28;6044293;23;20181;-93
2022/05/21 09:28:51;;;;;;;2.50;2.30;;;;;;;19.88;57.14;97740.81;6020997;23;20148;-93
2022/05/21 09:31:27;;;;;;;2.50;2.30;;;;;;;20.22;57.08;97800.84;6044149;23;20157;-92
2022/05/21 09:33:55;;;;;;;3.40;2.30;;;;;;;20.12;57.37;97770.59;6022824;23;20177;-93
2022/05/21 09:36:32;;;;;;;2.40;2.20;;;;;;;20.47;57.24;97855.44;6044585;23;20157;-93
2022/05/21 09:38:58;;;;;;;2.83;2.40;;;;;;;21.01;57.20;97938.41;6068181;23;20152;-93
2022/05/21 09:41:28;;;;;;;2.50;2.30;;;;;;;20.61;57.15;97851.75;6044687;23;20167;-92
2022/05/21 09:47:12;;;;;;;2.67;2.47;;;;;;;20.61;57.09;97859.41;6071577;23;20159;-92
2022/05/21 09:49:39;;;;;;;3.07;2.50;;;;;;;21.04;57.47;97944.53;6068312;23;20160;-93
2022/05/21 09:52:21;;;;;;;2.70;2.50;;;;;;;21.04;57.03;97941.97;6044734;23;20157;-92
2022/05/21 09:54:47;;;;;;;2.97;2.47;;;;;;;20.38;56.86;97828.66;6067060;23;20157;-92
2022/05/21 09:57:42;;;;;;;2.33;2.13;;;;;;;21.41;57.10;97995.34;6065420;23;20191;-92
2022/05/21 10:00:32;;;;;;;2.87;2.57;;;;;;;21.42;57.12;97992.84;6067000;23;20157;-93
2022/05/21 10:03:00;;;;;;;2.37;2.27;;;;;;;21.42;56.97;97986.84;6066662;23;20180;-92
2022/05/21 10:05:37;;;;;;;3.00;2.50;;;;;;;20.90;57.23;97901.38;6066193;23;20172;-92
2022/05/21 10:11:23;;;;;;;3.83;2.30;;;;;;;20.43;56.94;97824.63;6051422;23;20179;-93
2022/05/21 10:14:20;;;;;;;2.80;2.43;;;;;;;21.43;57.02;97981.81;6065701;23;20157;-92
2022/05/21 10:16:59;;;;;;;2.97;2.63;;;;;;;19.73;56.90;97695.97;6024951;23;20242;-92
2022/05/21 10:19:56;;;;;;;2.53;2.33;;;;;;;20.52;56.83;97818.16;6066074;23;20181;-92
2022/05/21 10:23:01;;;;;;;2.43;2.23;;;;;;;21.44;56.92;97975.00;6071283;23;20208;-93
2022/05/21 10:25:34;;;;;;;2.40;2.20;;;;;;;20.22;56.68;97775.31;6091246;23;20180;-92
2022/05/21 10:28:26;;;;;;;2.30;2.20;;;;;;;21.45;56.92;97969.06;6044276;23;20148;-93
2022/05/21 10:31:22;;;;;;;2.27;2.07;;;;;;;21.44;56.69;97970.75;6068973;23;21232;-92
2022/05/21 10:34:06;;;;;;;2.83;2.63;;;;;;;21.45;56.64;97976.75;6067988;23;20156;-92
2022/05/21 10:36:38;;;;;;;2.60;2.13;;;;;;;21.45;56.79;97974.19;6091250;23;20197;-93
2022/05/21 10:39:33;;;;;;;2.20;2.00;;;;;;;21.45;56.51;97971.63;6092772;23;20173;-93
2022/05/21 10:42:17;;;;;;;2.30;2.20;;;;;;;21.45;56.79;97974.19;6067960;23;20176;-93
2022/05/21 10:44:57;;;;;;;2.60;2.40;;;;;;;21.44;56.69;97965.63;6067903;23;20157;-93
2022/05/21 11:38:53;;;;;;;3.53;3.13;;;;;;;15.48;55.19;96888.84;6067290;23;20167;-95
2022/05/21 11:41:30;;;;;;;5.07;3.03;;;;;;;20.11;55.37;97698.31;6063506;23;20167;-92
2022/05/21 11:47:07;;;;;;;3.97;3.30;;;;;;;21.47;55.21;97918.88;6048085;23;20571;-90
2022/05/21 11:49:42;;;;;;;4.47;3.40;;;;;;;21.47;55.44;97918.88;6041007;23;20235;-91
2022/05/21 11:52:27;;;;;;;4.27;3.17;;;;;;;21.47;55.05;97916.31;5996104;23;20200;-91
2022/05/21 11:54:54;;;;;;;4.30;3.20;;;;;;;21.47;55.26;97917.16;6059630;23;20179;-92
2022/05/21 11:57:45;;;;;;;4.70;3.00;;;;;;;18.04;55.07;97319.97;6057271;23;20196;-93
2022/05/21 12:00:14;;;;;;;3.80;2.73;;;;;;;21.48;55.08;97918.91;6048263;23;20177;-92
2022/05/21 12:02:53;;;;;;;3.50;2.73;;;;;;;21.50;54.91;97906.19;6048779;23;20672;-93
2022/05/21 12:05:33;;;;;;;4.93;2.93;;;;;;;21.47;55.04;97901.81;6050406;23;20214;-92
2022/05/21 12:08:12;;;;;;;3.33;2.67;;;;;;;21.48;54.82;97897.56;6049873;23;20176;-93
2022/05/21 12:10:55;;;;;;;3.13;2.40;;;;;;;21.49;54.78;97897.63;6026941;23;20164;-94
2022/05/21 12:13:32;;;;;;;3.53;2.50;;;;;;;21.49;55.04;97907.88;6057236;23;20236;-91
2022/05/21 12:16:20;;;;;;;3.50;2.50;;;;;;;21.50;54.76;97898.50;6061636;23;20172;-93
2022/05/21 12:18:48;;;;;;;4.73;2.43;;;;;;;19.39;54.85;97533.22;6059112;23;20212;-90
2022/05/21 12:21:28;;;;;;;2.87;2.50;;;;;;;21.49;54.70;97891.63;6013156;23;20224;-94
2022/05/21 12:23:58;;;;;;;3.43;2.50;;;;;;;21.50;54.61;97890.84;6043060;23;20192;-88
2022/05/21 12:26:37;;;;;;;3.13;2.23;;;;;;;17.22;54.45;97180.22;6070588;23;20180;-90
2022/05/21 12:29:14;;;;;;;2.43;2.20;;;;;;;13.19;54.26;96527.22;6019718;23;20168;-88
2022/05/21 12:32:16;;;;;;;4.27;2.03;;;;;;;20.49;54.23;97726.13;5999698;23;20235;-91
2022/05/21 12:35:09;;;;;;;2.77;2.17;;;;;;;17.84;54.13;97261.50;6033782;23;20241;-89
2022/05/21 12:37:39;;;;;;;3.37;2.60;;;;;;;16.83;54.31;97114.25;6025423;23;20256;-90
2022/05/21 12:40:29;;;;;;;2.40;2.00;;;;;;;21.48;54.39;97888.22;6024080;23;20166;-89
2022/05/21 12:43:16;;;;;;;2.57;2.13;;;;;;;21.46;54.44;97873.63;6015574;23;20989;-90
2022/05/21 12:45:47;;;;;;;4.40;2.20;;;;;;;21.45;54.42;97880.44;6020304;23;20200;-91
2022/05/21 12:48:28;;;;;;;2.30;2.10;;;;;;;19.89;54.34;97616.69;6025546;23;20184;-92
2022/05/21 12:51:00;;;;;;;3.93;2.33;;;;;;;20.31;54.57;97687.19;6031132;23;20184;-94
2022/05/21 12:53:28;;;;;;;2.43;2.10;;;;;;;19.31;54.36;97543.94;6029588;23;20197;-93
2022/05/21 12:55:59;;;;;;;2.80;2.00;;;;;;;18.68;54.76;97421.75;6027621;23;20180;-90
2022/05/21 12:58:25;;;;;;;2.47;2.27;;;;;;;18.95;55.05;97451.66;6060117;23;20200;-92
2022/05/21 13:00:54;;;;;;;2.80;2.50;;;;;;;19.72;54.88;97595.66;6028521;23;20169;-89
2022/05/21 13:03:22;;;;;;;3.37;2.23;;;;;;;19.18;54.90;97498.38;6010526;23;20228;-91
2022/05/21 13:06:03;;;;;;;3.93;2.10;;;;;;;19.26;54.78;97497.88;6029968;23;20180;-91
2022/05/21 13:08:30;;;;;;;4.63;2.27;;;;;;;19.28;54.48;97496.28;6013089;23;20175;-95
2022/05/21 13:11:10;;;;;;;2.37;2.10;;;;;;;21.41;54.82;97862.41;6036285;23;20192;-94
2022/05/21 13:13:49;;;;;;;2.40;2.20;;;;;;;14.37;54.61;96710.22;6013777;23;20315;-94
2022/05/21 13:16:58;;;;;;;3.03;2.27;;;;;;;14.71;54.82;96753.00;6026611;23;20234;-91
2022/05/21 13:19:32;;;;;;;4.10;2.50;;;;;;;21.40;54.85;97858.97;6035855;23;20216;-93
2022/05/21 13:22:39;;;;;;;2.63;2.40;;;;;;;19.83;54.87;97581.63;6061336;23;20200;-96
2022/05/21 13:25:23;;;;;;;3.40;2.40;;;;;;;16.34;54.57;96998.06;6058929;23;20236;-94
2022/05/21 13:27:55;;;;;;;2.20;2.00;;;;;;;15.37;54.37;96849.50;6045896;23;20180;-96
2022/05/21 13:30:47;;;;;;;2.20;2.00;;;;;;;17.87;55.00;97336.22;6030783;23;20191;-96
2022/05/21 13:33:43;;;;;;;4.10;2.30;;;;;;;19.93;54.91;97595.59;6011276;23;20208;-94
2022/05/21 13:36:12;;;;;;;2.63;1.93;;;;;;;18.41;54.66;97407.94;6037005;23;20183;-94
2022/05/21 13:38:40;;;;;;;3.23;1.90;;;;;;;17.35;54.67;97229.84;6013227;23;20223;-94
2022/05/21 13:41:10;;;;;;;3.50;2.30;;;;;;;15.26;54.50;96820.31;6034806;23;20180;-96
2022/05/21 13:43:42;;;;;;;2.60;2.10;;;;;;;18.39;54.66;97310.31;6013167;23;20188;-92
2022/05/21 13:46:20;;;;;;;5.40;2.27;;;;;;;15.26;54.24;96855.75;6036630;23;20164;-94
2022/05/21 13:48:51;;;;;;;5.97;2.37;;;;;;;17.75;54.66;97256.94;6061726;23;20353;-93
2022/05/21 13:51:19;;;;;;;2.37;2.03;;;;;;;17.00;54.45;97083.69;6035650;23;20175;-96
2022/05/21 13:53:46;;;;;;;2.30;2.00;;;;;;;16.40;54.36;96983.09;6035079;23;20220;-94
2022/05/21 13:56:31;;;;;;;2.17;1.97;;;;;;;21.40;54.57;97827.41;6036004;23;20168;-96
2022/05/21 13:59:26;;;;;;;4.93;2.27;;;;;;;15.02;54.50;96799.03;6059946;23;20200;-95
2022/05/21 14:01:55;;;;;;;2.70;2.00;;;;;;;17.40;54.76;97238.50;6037023;23;20188;-96
2022/05/21 14:04:38;;;;;;;2.10;2.00;;;;;;;16.82;54.42;97098.19;6034909;23;20187;-95
2022/05/21 14:07:31;;;;;;;2.20;2.00;;;;;;;19.51;54.60;97503.09;6016216;23;20152;-96
2022/05/21 14:10:09;;;;;;;2.90;1.83;;;;;;;15.13;54.48;96754.81;6060134;23;20180;-91
2022/05/21 14:12:44;;;;;;;1.63;1.53;;;;;;;17.01;54.32;97062.56;6013386;23;20195;-91
2022/05/21 14:15:25;;;;;;;2.47;2.13;;;;;;;19.77;54.48;97540.59;6040279;23;20179;-96
2022/05/21 14:18:01;;;;;;;1.93;1.60;;;;;;;15.03;54.38;96750.16;6059428;23;20204;-95
2022/05/21 14:20:37;;;;;;;3.07;1.90;;;;;;;19.75;54.73;97562.63;6016528;23;20240;-93
2022/05/21 14:23:27;;;;;;;2.80;2.00;;;;;;;14.47;54.52;96737.59;6031250;23;20188;-92
2022/05/21 14:26:16;;;;;;;2.17;1.83;;;;;;;19.91;54.63;97561.50;6063148;23;20192;-96
2022/05/21 14:28:47;;;;;;;1.80;1.70;;;;;;;13.77;54.74;96498.72;6059167;23;20180;-96
2022/05/21 14:31:38;;;;;;;2.50;1.97;;;;;;;21.42;54.75;97826.66;6037099;23;20180;-96
2022/05/21 14:34:14;;;;;;;2.20;2.00;;;;;;;21.44;54.56;97827.56;6058411;23;20239;-95
2022/05/21 14:36:45;;;;;;;2.00;1.60;;;;;;;18.46;54.52;97391.16;6057489;23;20191;-96
2022/05/21 14:39:12;;;;;;;5.17;1.80;;;;;;;16.44;54.45;96968.94;6035905;23;20216;-96
2022/05/21 14:41:51;;;;;;;2.30;1.67;;;;;;;13.92;54.39;96595.31;6035162;23;20168;-96
2022/05/21 14:44:24;;;;;;;3.43;1.77;;;;;;;16.93;54.59;97096.94;6037284;23;20173;-96
2022/05/21 14:49:37;;;;;;;2.17;1.97;;;;;;;17.01;54.43;97072.72;6042733;23;20156;-95
2022/05/21 14:54:57;;;;;;;1.73;1.63;;;;;;;13.14;54.30;96429.47;6042419;23;20157;-95
2022/05/21 14:57:29;;;;;;;2.00;1.80;;;;;;;13.52;54.30;96500.09;6037266;23;20164;-94
2022/05/21 15:00:05;;;;;;;1.83;1.60;;;;;;;15.30;54.69;96802.78;6057869;23;20219;-96
2022/05/21 15:02:35;;;;;;;1.90;1.60;;;;;;;13.82;54.55;96555.31;6058063;23;20209;-93
2022/05/21 15:05:08;;;;;;;2.37;1.90;;;;;;;16.82;54.62;97014.44;6013444;23;20168;-96
2022/05/21 15:07:36;;;;;;;3.30;1.70;;;;;;;17.25;54.73;97124.47;6038329;23;20191;-95
2022/05/21 15:10:09;;;;;;;3.13;1.70;;;;;;;15.37;54.63;96751.66;6014583;23;20180;-92
2022/05/21 15:12:45;;;;;;;2.23;1.80;;;;;;;15.22;54.44;96750.13;6038122;23;20194;-96
2022/05/21 15:15:22;;;;;;;2.67;2.00;;;;;;;16.28;54.52;96971.59;6038356;23;20165;-96
2022/05/21 15:17:49;;;;;;;1.73;1.60;;;;;;;16.90;54.56;97048.59;6085738;23;20175;-93
2022/05/21 15:20:19;;;;;;;3.33;1.80;;;;;;;13.75;54.33;96461.59;6037318;23;20172;-96
2022/05/21 15:22:48;;;;;;;1.70;1.60;;;;;;;18.08;54.09;97237.91;6012687;23;20200;-95
2022/05/21 15:25:28;;;;;;;1.90;1.80;;;;;;;17.25;54.94;97139.69;6013408;23;20231;-95
2022/05/21 15:27:55;;;;;;;1.90;1.60;;;;;;;13.31;54.37;96436.09;6037186;23;20177;-96
2022/05/21 15:30:23;;;;;;;1.77;1.67;;;;;;;16.96;54.45;97020.06;6021294;23;20204;-92
2022/05/21 15:32:50;;;;;;;2.00;1.80;;;;;;;20.25;54.48;97609.53;6003730;23;20267;-94
2022/05/21 15:35:17;;;;;;;2.17;1.70;;;;;;;20.47;54.71;97648.66;6024162;23;20176;-96
2022/05/21 15:37:44;;;;;;;3.10;1.70;;;;;;;19.24;54.72;97389.91;6002428;23;20179;-91
2022/05/21 15:40:11;;;;;;;2.10;1.90;;;;;;;19.29;54.85;97466.56;6034999;23;20192;-96
2022/05/21 15:42:38;;;;;;;2.10;1.73;;;;;;;18.86;54.48;97372.38;6018391;23;20252;-95
2022/05/21 15:45:05;;;;;;;2.40;1.80;;;;;;;20.48;54.53;97634.19;6017885;23;20179;-96
2022/05/21 15:47:32;;;;;;;2.13;1.87;;;;;;;18.73;54.59;97372.72;6023114;23;20168;-96
2022/05/21 15:49:59;;;;;;;1.67;1.57;;;;;;;15.51;54.43;96866.16;6023546;23;20200;-96
2022/05/21 15:52:30;;;;;;;4.03;1.70;;;;;;;16.00;54.58;96887.66;6023207;23;20180;-96
2022/05/21 15:54:57;;;;;;;1.80;1.70;;;;;;;17.04;54.09;97055.06;6047840;23;20156;-96
2022/05/21 15:57:24;;;;;;;2.30;2.10;;;;;;;19.02;54.48;97351.78;6021437;23;20358;-90
2022/05/21 15:59:52;;;;;;;1.87;1.77;;;;;;;15.67;54.17;96793.44;6061311;23;20222;-95
2022/05/21 16:02:24;;;;;;;3.43;1.70;;;;;;;17.60;54.37;97103.88;6042451;23;20232;-96
2022/05/21 16:04:51;;;;;;;2.13;1.93;;;;;;;15.34;54.45;96750.66;6019578;23;20153;-96
2022/05/21 16:07:17;;;;;;;2.20;1.70;;;;;;;18.64;54.33;97295.16;6065549;23;20181;-95
2022/05/21 16:09:47;;;;;;;2.03;1.73;;;;;;;20.54;54.50;97619.94;6043032;23;20165;-96
2022/05/21 16:12:14;;;;;;;1.70;1.60;;;;;;;19.77;54.54;97470.88;6018289;23;20196;-96
2022/05/21 16:14:40;;;;;;;3.17;1.77;;;;;;;20.31;54.30;97553.63;6017195;23;20225;-95
2022/05/21 16:17:07;;;;;;;1.90;1.77;;;;;;;18.07;54.67;97172.63;6042973;23;20152;-95
2022/05/21 16:19:36;;;;;;;1.80;1.70;;;;;;;19.17;54.62;97382.00;6020345;23;20243;-96
2022/05/21 16:22:05;;;;;;;2.67;1.63;;;;;;;20.02;54.42;97559.34;6017198;23;20197;-91
2022/05/21 16:24:32;;;;;;;2.03;1.80;;;;;;;17.89;54.39;97189.69;6016490;23;20196;-96
2022/05/21 16:27:12;;;;;;;2.03;1.77;;;;;;;18.81;54.62;97350.97;6018796;23;20177;-96
2022/05/21 16:29:40;;;;;;;1.90;1.67;;;;;;;20.17;54.50;97540.38;6024419;23;20158;-95
2022/05/21 16:32:07;;;;;;;1.80;1.70;;;;;;;17.21;54.49;97026.13;6039360;23;20204;-95
2022/05/21 16:34:34;;;;;;;4.13;2.17;;;;;;;19.31;54.48;97378.31;6012977;23;20202;-94
2022/05/21 16:37:05;;;;;;;2.70;1.60;;;;;;;18.25;54.58;97187.66;5999308;23;20196;-90
2022/05/21 16:39:32;;;;;;;4.47;1.90;;;;;;;20.54;54.57;97575.69;5990707;23;20213;-90
2022/05/21 16:42:00;;;;;;;1.70;1.60;;;;;;;20.82;54.75;97640.53;5991009;23;20307;-90
2022/05/21 16:44:27;;;;;;;2.17;1.77;;;;;;;21.23;54.64;97710.94;6013649;23;20184;-90
2022/05/21 16:46:53;;;;;;;1.67;1.57;;;;;;;21.23;54.82;97701.56;5990101;23;20691;-91
2022/05/21 16:49:20;;;;;;;1.87;1.70;;;;;;;20.12;54.48;97495.94;6013963;23;20207;-91
2022/05/21 16:51:47;;;;;;;2.60;1.80;;;;;;;20.56;54.52;97569.81;6013173;23;20184;-91
2022/05/21 16:54:13;;;;;;;2.37;2.00;;;;;;;19.22;54.58;97338.03;5997392;23;20595;-92
2022/05/21 16:56:40;;;;;;;3.27;1.90;;;;;;;20.44;54.52;97568.53;6008866;23;20187;-94
2022/05/21 16:59:06;;;;;;;2.77;1.80;;;;;;;19.22;54.43;97381.34;6011567;23;20207;-95